Time;durP1;ratioP1;P1;durP2;ratioP2;P2;SDS_P1;SDS_P2;PMS_P1;PMS_P2;Temp;Humidity;BMP_temperature;BMP_pressure;BME280_temperature;BME280_humidity;BME280_pressure;Samples;Min_cycle;Max_cycle;Signal;HPM_P1;HPM_P2
2021/05/30 00:01:07;;;;;;;3.67;0.65;;;;;;;;;;4914021;29;20057;-57
2021/05/30 00:03:33;;;;;;;2.35;0.50;;;;;;;;;;4915600;29;20040;-57
2021/05/30 00:05:59;;;;;;;5.60;0.50;;;;;;;;;;4915872;29;20459;-58
2021/05/30 00:08:25;;;;;;;1.25;0.43;;;;;;;;;;4917594;29;20054;-58
2021/05/30 00:10:51;;;;;;;1.98;0.50;;;;;;;;;;4916733;29;20067;-58
2021/05/30 00:13:18;;;;;;;2.08;0.50;;;;;;;;;;4917613;29;20048;-58
2021/05/30 00:15:44;;;;;;;2.60;0.60;;;;;;;;;;4913139;29;20060;-59
2021/05/30 00:18:10;;;;;;;1.25;0.50;;;;;;;;;;4917785;29;20058;-57
2021/05/30 00:20:36;;;;;;;3.25;0.55;;;;;;;;;;4917405;29;20151;-58
2021/05/30 00:23:02;;;;;;;2.28;0.50;;;;;;;;;;4919038;29;20048;-58
2021/05/30 00:25:28;;;;;;;2.13;0.50;;;;;;;;;;4917195;29;20364;-58
2021/05/30 00:27:54;;;;;;;2.00;0.50;;;;;;;;;;4918033;29;20054;-57
2021/05/30 00:30:20;;;;;;;1.02;0.40;;;;;;;;;;4915595;29;20069;-58
2021/05/30 00:32:47;;;;;;;2.03;0.52;;;;;;;;;;4917827;29;20036;-58
2021/05/30 00:35:13;;;;;;;2.40;0.55;;;;;;;;;;4915561;29;20044;-58
2021/05/30 00:37:38;;;;;;;1.77;0.50;;;;;;;;;;4917788;29;20530;-57
2021/05/30 00:40:05;;;;;;;3.53;0.70;;;;;;;;;;4921476;29;20055;-57
2021/05/30 00:42:30;;;;;;;2.08;0.50;;;;;;;;;;4920696;29;20660;-58
2021/05/30 00:44:56;;;;;;;3.35;0.60;;;;;;;;;;4911385;29;20057;-58
2021/05/30 00:47:22;;;;;;;2.47;0.60;;;;;;;;;;4920389;29;20086;-58
2021/05/30 00:49:48;;;;;;;3.85;1.02;;;;;;;;;;4919679;29;20059;-56
2021/05/30 00:52:14;;;;;;;3.42;1.00;;;;;;;;;;4920379;29;20071;-56
2021/05/30 00:54:40;;;;;;;2.60;0.50;;;;;;;;;;4917845;29;20451;-57
2021/05/30 00:57:07;;;;;;;4.57;0.70;;;;;;;;;;4921634;29;20058;-57
2021/05/30 00:59:32;;;;;;;2.90;0.80;;;;;;;;;;4921325;29;20147;-56
2021/05/30 01:01:58;;;;;;;2.80;0.80;;;;;;;;;;4919101;29;20061;-56
2021/05/30 01:04:24;;;;;;;2.78;0.57;;;;;;;;;;4915245;29;20046;-57
2021/05/30 01:06:54;;;;;;;4.25;0.77;;;;;;;;;;4918955;29;20048;-56
2021/05/30 01:09:20;;;;;;;4.80;1.50;;;;;;;;;;4920964;29;20498;-57
2021/05/30 01:11:47;;;;;;;1.95;0.65;;;;;;;;;;4921899;29;20043;-55
2021/05/30 01:14:13;;;;;;;3.60;0.70;;;;;;;;;;4920156;29;20083;-58
2021/05/30 01:16:39;;;;;;;2.42;0.65;;;;;;;;;;4920263;29;20118;-58
2021/05/30 01:19:05;;;;;;;2.13;0.60;;;;;;;;;;4923132;29;20058;-58
2021/05/30 01:21:32;;;;;;;7.45;0.70;;;;;;;;;;4920930;29;20222;-56
2021/05/30 01:23:57;;;;;;;4.85;1.15;;;;;;;;;;4913350;29;20036;-57
2021/05/30 01:26:24;;;;;;;2.25;0.80;;;;;;;;;;4922693;29;20087;-56
2021/05/30 01:28:50;;;;;;;7.05;0.90;;;;;;;;;;4923671;29;20051;-56
2021/05/30 01:31:16;;;;;;;2.90;0.65;;;;;;;;;;4922674;29;20044;-57
2021/05/30 01:33:46;;;;;;;4.90;0.70;;;;;;;;;;4914216;29;20044;-57
2021/05/30 01:36:12;;;;;;;5.70;0.93;;;;;;;;;;4922603;29;20527;-57
2021/05/30 01:38:38;;;;;;;4.70;0.77;;;;;;;;;;4919192;29;21654;-57
2021/05/30 01:41:04;;;;;;;8.23;0.90;;;;;;;;;;4918549;29;21271;-57
2021/05/30 01:43:30;;;;;;;4.60;0.70;;;;;;;;;;4921123;29;20044;-56
2021/05/30 01:45:56;;;;;;;4.82;1.10;;;;;;;;;;4915036;29;20040;-56
2021/05/30 01:48:22;;;;;;;4.53;0.70;;;;;;;;;;4918932;29;20040;-56
2021/05/30 01:50:48;;;;;;;2.70;0.70;;;;;;;;;;4919712;29;20061;-57
2021/05/30 01:53:17;;;;;;;6.28;0.95;;;;;;;;;;4918929;29;20031;-57
2021/05/30 01:58:19;;;;;;;2.60;0.90;;;;;;;;;;4913258;29;20039;-55
2021/05/30 02:00:49;;;;;;;3.88;0.63;;;;;;;;;;4918500;29;20048;-53
2021/05/30 02:03:15;;;;;;;4.40;0.90;;;;;;;;;;4919044;29;20048;-56
2021/05/30 02:05:42;;;;;;;3.50;0.80;;;;;;;;;;4917819;29;20064;-56
2021/05/30 02:08:09;;;;;;;2.75;0.70;;;;;;;;;;4918106;29;20054;-57
2021/05/30 02:10:35;;;;;;;11.52;5.82;;;;;;;;;;4911643;29;20043;-57
2021/05/30 02:13:02;;;;;;;2.50;0.88;;;;;;;;;;4919103;29;20472;-57
2021/05/30 02:15:28;;;;;;;4.72;1.25;;;;;;;;;;4917774;29;20044;-57
2021/05/30 02:17:53;;;;;;;4.00;1.63;;;;;;;;;;4918943;29;20047;-57
2021/05/30 02:20:28;;;;;;;6.60;4.10;;;;;;;;;;4916044;29;20171;-58
2021/05/30 02:22:54;;;;;;;5.80;3.15;;;;;;;;;;4917304;29;20065;-57
2021/05/30 02:25:20;;;;;;;9.57;6.80;;;;;;;;;;4916997;29;21093;-58
2021/05/30 02:27:46;;;;;;;14.18;9.85;;;;;;;;;;4917393;29;20040;-57
2021/05/30 02:30:12;;;;;;;97.90;71.82;;;;;;;;;;4916674;29;20055;-58
2021/05/30 02:32:38;;;;;;;98.70;72.38;;;;;;;;;;4918132;29;20044;-56
2021/05/30 02:35:04;;;;;;;13.82;9.43;;;;;;;;;;4916929;29;20106;-56
2021/05/30 02:37:29;;;;;;;5.70;2.17;;;;;;;;;;4915370;29;20764;-57
2021/05/30 02:39:55;;;;;;;3.10;0.70;;;;;;;;;;4918224;29;20068;-57
2021/05/30 02:42:21;;;;;;;5.35;1.40;;;;;;;;;;4916432;29;20084;-57
2021/05/30 02:44:47;;;;;;;5.13;2.00;;;;;;;;;;4916731;29;20040;-56
2021/05/30 02:47:13;;;;;;;4.55;1.10;;;;;;;;;;4917457;29;20596;-56
2021/05/30 02:49:38;;;;;;;3.50;1.30;;;;;;;;;;4917241;29;20060;-56
2021/05/30 02:52:05;;;;;;;3.42;1.05;;;;;;;;;;4915704;29;20521;-56
2021/05/30 02:54:32;;;;;;;4.72;0.90;;;;;;;;;;4911044;29;20051;-55
2021/05/30 02:56:58;;;;;;;3.70;0.90;;;;;;;;;;4916361;29;20044;-54
2021/05/30 02:59:24;;;;;;;6.25;1.17;;;;;;;;;;4914611;29;20051;-55
2021/05/30 03:01:49;;;;;;;2.92;0.88;;;;;;;;;;4915470;29;20040;-53
2021/05/30 03:04:15;;;;;;;3.03;1.00;;;;;;;;;;4917570;29;20053;-56
2021/05/30 03:06:41;;;;;;;4.60;1.13;;;;;;;;;;4914814;29;20564;-56
2021/05/30 03:09:07;;;;;;;2.72;0.90;;;;;;;;;;4916877;29;20047;-55
2021/05/30 03:11:33;;;;;;;4.70;0.80;;;;;;;;;;4916803;29;20102;-57
2021/05/30 03:13:59;;;;;;;2.70;0.88;;;;;;;;;;4917758;29;20465;-55
2021/05/30 03:16:25;;;;;;;2.80;0.80;;;;;;;;;;4917473;29;20094;-57
2021/05/30 03:18:51;;;;;;;3.90;0.80;;;;;;;;;;4915652;29;20067;-57
2021/05/30 03:21:17;;;;;;;2.92;1.10;;;;;;;;;;4896604;29;20338;-58
2021/05/30 03:23:43;;;;;;;5.97;1.00;;;;;;;;;;4913981;29;20215;-54
2021/05/30 03:26:09;;;;;;;4.82;0.82;;;;;;;;;;4910680;29;20039;-58
2021/05/30 03:28:35;;;;;;;5.47;1.10;;;;;;;;;;4915472;29;20267;-57
2021/05/30 03:31:01;;;;;;;5.47;1.40;;;;;;;;;;4915193;29;20443;-57
2021/05/30 03:33:27;;;;;;;5.55;2.28;;;;;;;;;;4916382;29;20521;-58
2021/05/30 03:35:56;;;;;;;7.72;2.60;;;;;;;;;;4916205;29;20047;-56
2021/05/30 03:38:24;;;;;;;5.05;2.40;;;;;;;;;;4916903;29;20040;-57
2021/05/30 03:41:03;;;;;;;6.97;2.65;;;;;;;;;;4916365;29;20043;-58
2021/05/30 03:43:29;;;;;;;4.38;1.85;;;;;;;;;;4917029;29;20398;-57
2021/05/30 03:45:55;;;;;;;4.35;1.90;;;;;;;;;;4916919;29;20055;-58
2021/05/30 03:48:21;;;;;;;6.05;1.92;;;;;;;;;;4916602;29;20035;-58
2021/05/30 03:50:50;;;;;;;5.43;2.50;;;;;;;;;;4917253;29;20058;-56
2021/05/30 03:53:16;;;;;;;7.57;1.73;;;;;;;;;;4917767;29;22014;-55
2021/05/30 03:55:42;;;;;;;3.47;1.70;;;;;;;;;;4917994;29;20039;-57
2021/05/30 03:58:08;;;;;;;8.20;2.10;;;;;;;;;;4897479;29;20051;-57
2021/05/30 04:00:34;;;;;;;6.63;1.92;;;;;;;;;;4917302;29;20051;-56
2021/05/30 04:03:00;;;;;;;6.03;1.90;;;;;;;;;;4917823;29;20103;-57
2021/05/30 04:05:26;;;;;;;4.60;2.33;;;;;;;;;;4916021;29;20372;-57
2021/05/30 04:07:51;;;;;;;5.28;2.03;;;;;;;;;;4916370;29;20597;-57
2021/05/30 04:10:17;;;;;;;5.97;2.60;;;;;;;;;;4916694;29;20134;-57
2021/05/30 04:12:43;;;;;;;3.40;1.52;;;;;;;;;;4910753;29;20043;-57
2021/05/30 04:15:10;;;;;;;3.80;1.60;;;;;;;;;;4920023;29;20924;-55
2021/05/30 04:17:36;;;;;;;4.80;1.80;;;;;;;;;;4915773;29;20031;-57
2021/05/30 04:20:03;;;;;;;5.10;1.80;;;;;;;;;;4920188;29;20064;-55
2021/05/30 04:22:29;;;;;;;3.95;1.42;;;;;;;;;;4920013;29;20040;-58
2021/05/30 04:24:54;;;;;;;3.40;1.25;;;;;;;;;;4917706;29;20047;-53
2021/05/30 04:27:20;;;;;;;3.45;1.40;;;;;;;;;;4918220;29;20115;-57
2021/05/30 04:29:46;;;;;;;5.45;2.10;;;;;;;;;;4919777;29;20063;-58
2021/05/30 04:32:12;;;;;;;6.22;2.00;;;;;;;;;;4919910;29;20043;-57
2021/05/30 04:34:38;;;;;;;10.95;5.18;;;;;;;;;;4917870;29;20044;-56
2021/05/30 04:37:04;;;;;;;7.80;2.05;;;;;;;;;;4918224;29;20047;-56
2021/05/30 04:39:31;;;;;;;3.92;1.13;;;;;;;;;;4917786;29;20036;-57
2021/05/30 04:42:03;;;;;;;2.75;0.88;;;;;;;;;;4919391;29;20040;-56
2021/05/30 04:44:29;;;;;;;2.50;0.90;;;;;;;;;;4920084;29;20077;-57
2021/05/30 04:46:55;;;;;;;5.50;1.08;;;;;;;;;;4919978;29;20039;-57
2021/05/30 04:49:21;;;;;;;6.05;1.13;;;;;;;;;;4918621;29;20058;-56
2021/05/30 04:51:46;;;;;;;2.88;0.85;;;;;;;;;;4920245;29;20900;-57
2021/05/30 04:54:12;;;;;;;4.25;1.00;;;;;;;;;;4919482;29;20140;-56
2021/05/30 04:56:38;;;;;;;3.67;0.90;;;;;;;;;;4920270;29;20039;-57
2021/05/30 04:59:04;;;;;;;2.47;0.90;;;;;;;;;;4918812;29;20047;-57
2021/05/30 05:01:30;;;;;;;2.78;0.90;;;;;;;;;;4918120;29;20047;-57
2021/05/30 05:03:56;;;;;;;3.25;0.90;;;;;;;;;;4919247;29;20415;-57
2021/05/30 05:06:21;;;;;;;5.32;1.20;;;;;;;;;;4918925;29;20035;-55
2021/05/30 05:08:49;;;;;;;5.47;1.13;;;;;;;;;;4917794;29;20325;-56
2021/05/30 05:11:14;;;;;;;3.35;1.15;;;;;;;;;;4917917;29;20070;-57
2021/05/30 05:13:40;;;;;;;3.28;1.20;;;;;;;;;;4917004;29;20056;-57
2021/05/30 05:16:06;;;;;;;4.65;1.20;;;;;;;;;;4919364;29;20063;-56
2021/05/30 05:18:32;;;;;;;3.20;1.13;;;;;;;;;;4917919;29;20051;-57
2021/05/30 05:20:59;;;;;;;3.72;1.00;;;;;;;;;;4918084;29;20893;-54
2021/05/30 05:23:25;;;;;;;7.82;0.90;;;;;;;;;;4918034;29;20036;-56
2021/05/30 05:25:52;;;;;;;4.75;0.90;;;;;;;;;;4918630;29;20044;-57
2021/05/30 05:28:17;;;;;;;3.00;0.70;;;;;;;;;;4918968;29;20078;-58
2021/05/30 05:30:43;;;;;;;3.55;0.80;;;;;;;;;;4915643;29;20123;-56
2021/05/30 05:33:09;;;;;;;3.50;0.80;;;;;;;;;;4917699;29;20047;-57
2021/05/30 05:35:35;;;;;;;3.55;1.10;;;;;;;;;;4918248;29;20043;-56
2021/05/30 05:38:01;;;;;;;2.92;1.00;;;;;;;;;;4919304;29;20044;-58
2021/05/30 05:40:27;;;;;;;3.92;0.90;;;;;;;;;;4919061;29;22487;-57
2021/05/30 05:42:53;;;;;;;4.43;0.90;;;;;;;;;;4919591;29;20020;-56
2021/05/30 05:45:20;;;;;;;2.85;0.75;;;;;;;;;;4916622;29;20039;-56
2021/05/30 05:47:46;;;;;;;2.88;0.80;;;;;;;;;;4919531;29;20055;-56
2021/05/30 05:50:15;;;;;;;3.10;0.80;;;;;;;;;;4917176;29;20078;-56
2021/05/30 05:52:43;;;;;;;2.72;0.90;;;;;;;;;;4918358;29;20478;-55
2021/05/30 05:55:09;;;;;;;2.60;0.88;;;;;;;;;;4918733;29;20393;-55
2021/05/30 05:57:35;;;;;;;2.70;0.90;;;;;;;;;;4916309;29;20104;-56
2021/05/30 06:00:03;;;;;;;3.47;0.80;;;;;;;;;;4918760;29;20099;-54
2021/05/30 06:02:28;;;;;;;5.10;0.93;;;;;;;;;;4917015;29;20050;-55
2021/05/30 06:04:54;;;;;;;2.83;1.02;;;;;;;;;;4917851;29;20405;-54
2021/05/30 06:07:20;;;;;;;6.32;1.00;;;;;;;;;;4917760;29;20559;-56
2021/05/30 06:09:46;;;;;;;3.15;0.90;;;;;;;;;;4916071;29;20706;-57
2021/05/30 06:12:12;;;;;;;3.00;1.13;;;;;;;;;;4918742;29;20044;-55
2021/05/30 06:14:38;;;;;;;4.93;1.30;;;;;;;;;;4917384;29;20047;-56
2021/05/30 06:17:04;;;;;;;3.25;1.10;;;;;;;;;;4917123;29;20059;-56
2021/05/30 06:19:30;;;;;;;2.80;1.00;;;;;;;;;;4916140;29;20462;-53
2021/05/30 06:21:56;;;;;;;6.00;1.33;;;;;;;;;;4918410;29;20040;-56
2021/05/30 06:24:22;;;;;;;4.35;1.30;;;;;;;;;;4918426;29;20040;-54
2021/05/30 06:26:48;;;;;;;3.30;1.02;;;;;;;;;;4916696;29;20771;-55
2021/05/30 06:29:14;;;;;;;2.90;0.90;;;;;;;;;;4918331;29;20051;-57
2021/05/30 06:31:40;;;;;;;4.45;1.00;;;;;;;;;;4918518;29;20036;-53
2021/05/30 06:34:07;;;;;;;3.20;1.10;;;;;;;;;;4917661;29;20052;-55
2021/05/30 06:36:32;;;;;;;6.05;1.10;;;;;;;;;;4912269;29;20099;-54
2021/05/30 06:38:58;;;;;;;2.90;1.10;;;;;;;;;;4918377;29;20052;-56
2021/05/30 06:41:24;;;;;;;3.53;1.15;;;;;;;;;;4919982;29;20040;-56
2021/05/30 06:43:52;;;;;;;3.30;1.17;;;;;;;;;;4917822;29;20044;-56
2021/05/30 06:46:18;;;;;;;3.45;1.00;;;;;;;;;;4919268;29;20107;-55
2021/05/30 06:48:44;;;;;;;3.70;0.90;;;;;;;;;;4921719;29;20643;-55
2021/05/30 06:51:13;;;;;;;4.18;1.10;;;;;;;;;;4926716;29;20058;-55
2021/05/30 06:53:39;;;;;;;5.25;1.20;;;;;;;;;;4932674;29;20051;-56
2021/05/30 06:56:05;;;;;;;3.95;1.20;;;;;;;;;;4927478;29;20058;-56
2021/05/30 06:58:31;;;;;;;8.93;1.30;;;;;;;;;;4919530;29;20530;-55
2021/05/30 07:00:57;;;;;;;4.05;1.27;;;;;;;;;;4920155;29;20042;-55
2021/05/30 07:03:22;;;;;;;5.57;1.40;;;;;;;;;;4919096;29;20054;-53
2021/05/30 07:05:48;;;;;;;9.77;1.35;;;;;;;;;;4918551;29;20032;-53
2021/05/30 07:08:14;;;;;;;3.55;1.25;;;;;;;;;;4918680;29;20051;-56
2021/05/30 07:10:40;;;;;;;7.13;1.40;;;;;;;;;;4916311;29;20075;-55
2021/05/30 07:13:05;;;;;;;5.15;1.38;;;;;;;;;;4917013;29;20058;-56
2021/05/30 07:15:31;;;;;;;7.95;1.40;;;;;;;;;;4918147;29;20052;-57
2021/05/30 07:17:57;;;;;;;5.53;1.58;;;;;;;;;;4917485;29;20039;-56
2021/05/30 07:20:23;;;;;;;6.55;1.40;;;;;;;;;;4917787;29;20384;-56
2021/05/30 07:22:49;;;;;;;5.32;1.42;;;;;;;;;;4919242;29;20135;-56
2021/05/30 07:25:15;;;;;;;4.80;1.40;;;;;;;;;;4919303;29;20043;-56
2021/05/30 07:27:40;;;;;;;4.45;1.38;;;;;;;;;;4914538;29;20050;-55
2021/05/30 07:30:07;;;;;;;3.58;1.20;;;;;;;;;;4914980;29;20058;-55
2021/05/30 07:32:33;;;;;;;5.07;1.17;;;;;;;;;;4915647;29;22106;-55
2021/05/30 07:34:58;;;;;;;4.20;1.33;;;;;;;;;;4913596;29;20054;-53
2021/05/30 07:37:24;;;;;;;10.88;2.30;;;;;;;;;;4915073;29;20040;-55
2021/05/30 07:39:50;;;;;;;5.47;1.20;;;;;;;;;;4916309;29;20050;-53
2021/05/30 07:42:16;;;;;;;4.40;1.17;;;;;;;;;;4916214;29;20039;-54
2021/05/30 07:44:41;;;;;;;4.22;1.40;;;;;;;;;;4915959;29;20048;-55
2021/05/30 07:47:07;;;;;;;5.43;1.20;;;;;;;;;;4915163;29;20047;-54
2021/05/30 07:49:34;;;;;;;4.55;1.30;;;;;;;;;;4914410;29;20426;-56
2021/05/30 07:52:00;;;;;;;5.65;1.20;;;;;;;;;;4917048;29;20040;-56
2021/05/30 07:54:26;;;;;;;5.40;1.40;;;;;;;;;;4915957;29;20043;-56
2021/05/30 07:56:52;;;;;;;7.15;1.50;;;;;;;;;;4916161;29;20054;-55
2021/05/30 07:59:18;;;;;;;7.38;1.67;;;;;;;;;;4913354;29;20396;-56
2021/05/30 08:01:44;;;;;;;6.57;1.63;;;;;;;;;;4916554;29;20043;-56
2021/05/30 08:04:10;;;;;;;11.38;1.70;;;;;;;;;;4915495;29;20047;-55
2021/05/30 08:06:35;;;;;;;5.85;1.70;;;;;;;;;;4913954;29;20036;-56
2021/05/30 08:09:02;;;;;;;4.80;1.40;;;;;;;;;;4917287;29;20080;-56
2021/05/30 08:11:28;;;;;;;5.85;1.50;;;;;;;;;;4914420;29;20088;-55
2021/05/30 08:13:54;;;;;;;4.57;1.50;;;;;;;;;;4917314;29;20036;-58
2021/05/30 08:16:20;;;;;;;5.95;1.35;;;;;;;;;;4915984;29;20161;-54
2021/05/30 08:18:46;;;;;;;5.32;1.67;;;;;;;;;;4917287;29;20146;-57
2021/05/30 08:21:12;;;;;;;6.20;1.50;;;;;;;;;;4918570;29;20046;-56
2021/05/30 08:23:40;;;;;;;7.65;1.67;;;;;;;;;;4918529;29;20051;-55
2021/05/30 08:26:07;;;;;;;4.72;1.42;;;;;;;;;;4918789;29;20039;-54
2021/05/30 08:28:33;;;;;;;7.68;1.30;;;;;;;;;;4917672;29;20043;-55
2021/05/30 08:30:59;;;;;;;7.53;1.40;;;;;;;;;;4917375;29;20047;-56
2021/05/30 08:33:25;;;;;;;8.25;1.30;;;;;;;;;;4917353;29;20040;-54
2021/05/30 08:35:51;;;;;;;6.28;1.38;;;;;;;;;;4918131;29;20059;-54
2021/05/30 08:38:16;;;;;;;5.35;1.23;;;;;;;;;;4917283;29;20036;-56
2021/05/30 08:40:42;;;;;;;4.85;1.30;;;;;;;;;;4916395;29;20044;-55
2021/05/30 08:43:11;;;;;;;6.55;1.42;;;;;;;;;;4917223;29;20044;-56
2021/05/30 08:45:37;;;;;;;5.85;1.45;;;;;;;;;;4916579;29;20207;-56
2021/05/30 08:48:02;;;;;;;6.32;1.40;;;;;;;;;;4913846;29;20028;-56
2021/05/30 08:50:28;;;;;;;4.72;1.50;;;;;;;;;;4915031;29;20100;-56
2021/05/30 08:52:54;;;;;;;6.80;1.40;;;;;;;;;;4916263;29;20170;-56
2021/05/30 08:55:20;;;;;;;4.45;1.50;;;;;;;;;;4914786;29;20040;-57
2021/05/30 08:57:46;;;;;;;12.75;2.33;;;;;;;;;;4917086;29;20156;-57
2021/05/30 09:00:13;;;;;;;6.75;1.50;;;;;;;;;;4919899;29;20039;-55
2021/05/30 09:02:38;;;;;;;9.38;1.50;;;;;;;;;;4919174;29;20056;-57
2021/05/30 09:05:06;;;;;;;7.57;1.10;;;;;;;;;;4919481;29;20134;-56
2021/05/30 09:07:40;;;;;;;4.65;1.10;;;;;;;;;;4916629;29;20134;-56
2021/05/30 09:10:11;;;;;;;4.38;1.05;;;;;;;;;;4917919;29;20050;-56
2021/05/30 09:12:41;;;;;;;5.05;1.23;;;;;;;;;;4918130;29;20292;-55
2021/05/30 09:15:14;;;;;;;5.40;1.20;;;;;;;;;;4919245;29;20040;-57
2021/05/30 09:17:39;;;;;;;5.85;1.20;;;;;;;;;;4903017;29;20048;-56
2021/05/30 09:20:07;;;;;;;6.22;1.63;;;;;;;;;;4917874;29;20078;-55
2021/05/30 09:22:33;;;;;;;7.20;1.50;;;;;;;;;;4920040;29;20047;-56
2021/05/30 09:25:00;;;;;;;4.90;1.20;;;;;;;;;;4920483;29;20046;-55
2021/05/30 09:27:29;;;;;;;3.42;1.10;;;;;;;;;;4919092;29;20048;-54
2021/05/30 09:30:13;;;;;;;4.55;1.10;;;;;;;;;;4919420;29;20286;-54
2021/05/30 09:32:54;;;;;;;4.32;1.13;;;;;;;;;;4918339;29;20054;-56
2021/05/30 09:35:21;;;;;;;3.20;1.10;;;;;;;;;;4918339;29;20131;-53
2021/05/30 09:37:55;;;;;;;4.68;1.58;;;;;;;;;;4921609;29;20055;-54
2021/05/30 09:40:21;;;;;;;5.18;1.10;;;;;;;;;;4919652;29;20124;-56
2021/05/30 09:42:47;;;;;;;6.10;1.40;;;;;;;;;;4919600;29;20290;-53
2021/05/30 09:45:13;;;;;;;4.50;1.10;;;;;;;;;;4919920;29;20647;-53
2021/05/30 09:47:46;;;;;;;5.13;1.20;;;;;;;;;;4920722;29;20044;-55
2021/05/30 09:50:13;;;;;;;5.25;1.40;;;;;;;;;;4918949;29;20086;-54
2021/05/30 09:52:41;;;;;;;3.50;1.30;;;;;;;;;;4919675;29;20051;-55
2021/05/30 09:55:20;;;;;;;3.92;1.08;;;;;;;;;;4917281;29;20048;-53
2021/05/30 09:58:05;;;;;;;4.53;1.25;;;;;;;;;;4917246;29;20066;-55
2021/05/30 10:00:30;;;;;;;5.82;1.13;;;;;;;;;;4918043;29;20046;-55
2021/05/30 10:02:56;;;;;;;4.22;1.40;;;;;;;;;;4898828;29;20037;-53
2021/05/30 10:05:22;;;;;;;5.97;1.40;;;;;;;;;;4917586;29;20149;-55
2021/05/30 10:07:48;;;;;;;3.72;1.30;;;;;;;;;;4917741;29;20036;-52
2021/05/30 10:10:14;;;;;;;3.22;1.20;;;;;;;;;;4917279;29;20052;-54
2021/05/30 10:12:41;;;;;;;4.78;1.30;;;;;;;;;;4917111;29;20102;-55
2021/05/30 10:15:07;;;;;;;3.30;1.30;;;;;;;;;;4917400;29;20064;-53
2021/05/30 10:17:33;;;;;;;4.40;1.02;;;;;;;;;;4917616;29;20055;-56
2021/05/30 10:20:00;;;;;;;3.67;1.25;;;;;;;;;;4916210;29;20063;-53
2021/05/30 10:22:27;;;;;;;5.03;1.25;;;;;;;;;;4917787;29;20047;-53
2021/05/30 10:24:53;;;;;;;3.00;0.95;;;;;;;;;;4918450;29;20696;-53
2021/05/30 10:27:30;;;;;;;3.38;1.00;;;;;;;;;;4917552;29;20435;-54
2021/05/30 10:30:11;;;;;;;3.55;1.00;;;;;;;;;;4917627;29;20048;-54
2021/05/30 10:32:38;;;;;;;3.22;1.00;;;;;;;;;;4915495;29;20431;-54
2021/05/30 10:35:20;;;;;;;3.10;1.10;;;;;;;;;;4917511;29;20050;-54
2021/05/30 10:37:47;;;;;;;4.15;1.10;;;;;;;;;;4916516;29;20048;-55
2021/05/30 10:40:22;;;;;;;5.45;1.38;;;;;;;;;;4917129;29;20044;-57
2021/05/30 10:43:06;;;;;;;3.30;1.30;;;;;;;;;;4900416;29;20594;-56
2021/05/30 10:45:32;;;;;;;;;;;;;;;;;;4917788;29;20050;-57
2021/05/30 10:48:03;;;;;;;4.15;1.10;;;;;;;;;;4916201;29;19919;-57
2021/05/30 10:50:34;;;;;;;7.40;1.35;;;;;;;;;;4915377;29;20052;-55
2021/05/30 10:53:00;;;;;;;4.35;1.13;;;;;;;;;;4913420;29;20492;-56
2021/05/30 10:55:30;;;;;;;4.03;1.02;;;;;;;;;;4915929;29;20059;-54
2021/05/30 10:57:56;;;;;;;2.85;1.08;;;;;;;;;;4916359;29;20380;-56
2021/05/30 11:00:21;;;;;;;5.10;1.08;;;;;;;;;;4916855;29;20166;-56
2021/05/30 11:03:10;;;;;;;5.78;1.10;;;;;;;;;;4917731;29;20557;-56
2021/05/30 11:05:52;;;;;;;3.53;1.00;;;;;;;;;;4915149;29;20377;-56
2021/05/30 11:08:30;;;;;;;3.15;1.08;;;;;;;;;;4913387;29;20494;-57
2021/05/30 11:11:11;;;;;;;3.97;1.10;;;;;;;;;;4916297;29;20052;-57
2021/05/30 11:13:54;;;;;;;3.25;1.00;;;;;;;;;;4914709;29;20042;-56
2021/05/30 11:16:20;;;;;;;3.75;1.17;;;;;;;;;;4916597;29;20126;-56
2021/05/30 11:18:55;;;;;;;6.28;1.17;;;;;;;;;;4916961;29;20224;-56
2021/05/30 11:21:24;;;;;;;5.68;1.02;;;;;;;;;;4914713;29;20032;-55
2021/05/30 11:23:50;;;;;;;4.60;1.23;;;;;;;;;;4915126;29;20051;-55
2021/05/30 11:26:16;;;;;;;3.65;1.10;;;;;;;;;;4916658;29;20138;-53
2021/05/30 11:28:46;;;;;;;4.97;1.10;;;;;;;;;;4917193;29;20554;-55
2021/05/30 11:31:11;;;;;;;2.60;0.90;;;;;;;;;;4919161;29;20083;-54
2021/05/30 11:33:45;;;;;;;3.00;1.00;;;;;;;;;;4916259;29;21121;-56
2021/05/30 11:36:10;;;;;;;3.33;1.05;;;;;;;;;;4916568;29;20155;-56
2021/05/30 11:38:39;;;;;;;2.85;1.10;;;;;;;;;;4914372;29;20511;-57
2021/05/30 11:41:13;;;;;;;4.10;1.08;;;;;;;;;;4916157;29;20058;-57
2021/05/30 11:43:39;;;;;;;7.18;1.10;;;;;;;;;;4914724;29;20047;-53
2021/05/30 11:46:14;;;;;;;6.03;1.25;;;;;;;;;;4916775;29;20056;-56
2021/05/30 11:48:41;;;;;;;5.05;1.10;;;;;;;;;;4916022;29;20048;-55
2021/05/30 11:51:07;;;;;;;6.93;1.30;;;;;;;;;;4916474;29;20071;-56
2021/05/30 11:53:34;;;;;;;4.07;1.00;;;;;;;;;;4916787;29;21895;-56
2021/05/30 11:56:01;;;;;;;4.25;0.98;;;;;;;;;;4917654;29;20042;-56
2021/05/30 11:58:27;;;;;;;4.10;1.00;;;;;;;;;;4914640;29;20715;-56
2021/05/30 12:00:56;;;;;;;5.13;1.17;;;;;;;;;;4915898;29;20051;-54
2021/05/30 12:03:22;;;;;;;4.35;1.02;;;;;;;;;;4915652;29;20135;-57
2021/05/30 12:05:55;;;;;;;3.83;1.10;;;;;;;;;;4895007;29;20048;-56
2021/05/30 12:08:21;;;;;;;4.70;1.15;;;;;;;;;;4915738;29;20692;-56
2021/05/30 12:10:48;;;;;;;3.22;1.02;;;;;;;;;;4916300;29;20110;-55
2021/05/30 12:13:23;;;;;;;3.95;0.95;;;;;;;;;;4915905;29;20046;-55
2021/05/30 12:15:49;;;;;;;3.10;1.05;;;;;;;;;;4914860;29;20032;-57
2021/05/30 12:18:15;;;;;;;5.57;1.10;;;;;;;;;;4914082;29;20522;-57
2021/05/30 12:20:41;;;;;;;7.00;1.20;;;;;;;;;;4915643;29;20254;-56
2021/05/30 12:23:11;;;;;;;3.80;1.20;;;;;;;;;;4914484;29;20118;-56
2021/05/30 12:25:46;;;;;;;6.25;1.20;;;;;;;;;;4914243;29;20044;-55
2021/05/30 12:28:12;;;;;;;4.07;1.05;;;;;;;;;;4915074;29;20112;-54
2021/05/30 12:30:38;;;;;;;5.07;1.10;;;;;;;;;;4915868;29;20089;-54
2021/05/30 12:33:04;;;;;;;6.18;1.25;;;;;;;;;;4917915;29;20655;-55
2021/05/30 12:35:43;;;;;;;3.20;1.05;;;;;;;;;;4919931;29;20166;-53
2021/05/30 12:38:12;;;;;;;3.30;0.90;;;;;;;;;;4920248;29;20047;-55
2021/05/30 12:40:38;;;;;;;3.97;1.10;;;;;;;;;;4920729;29;20078;-56
2021/05/30 12:43:04;;;;;;;10.68;1.42;;;;;;;;;;4921046;29;20123;-56
2021/05/30 12:45:31;;;;;;;5.15;1.10;;;;;;;;;;4922160;29;20103;-56
2021/05/30 12:47:57;;;;;;;5.03;1.10;;;;;;;;;;4924330;29;20497;-54
2021/05/30 12:50:23;;;;;;;5.78;1.00;;;;;;;;;;4923876;29;20054;-56
2021/05/30 12:52:49;;;;;;;4.35;1.10;;;;;;;;;;4925297;29;20040;-56
2021/05/30 12:55:16;;;;;;;7.20;1.13;;;;;;;;;;4889610;29;20669;-56
2021/05/30 12:57:45;;;;;;;6.20;1.15;;;;;;;;;;4922812;29;20300;-57
2021/05/30 13:00:13;;;;;;;3.33;0.82;;;;;;;;;;4922452;29;20047;-55
2021/05/30 13:02:39;;;;;;;7.32;1.30;;;;;;;;;;4921258;29;20063;-56
2021/05/30 13:05:06;;;;;;;5.30;1.08;;;;;;;;;;4920995;29;20192;-57
2021/05/30 13:07:32;;;;;;;4.65;1.30;;;;;;;;;;4919866;29;20197;-55
2021/05/30 13:10:00;;;;;;;3.83;1.02;;;;;;;;;;4918887;29;20787;-54
2021/05/30 13:12:26;;;;;;;5.32;1.10;;;;;;;;;;4919830;29;20426;-54
2021/05/30 13:15:10;;;;;;;3.42;0.93;;;;;;;;;;4920325;29;20054;-57
2021/05/30 13:17:36;;;;;;;3.28;1.10;;;;;;;;;;4919060;29;20131;-56
2021/05/30 13:20:04;;;;;;;3.67;1.02;;;;;;;;;;4920089;29;20043;-54
2021/05/30 13:22:30;;;;;;;4.85;1.20;;;;;;;;;;4917368;29;20135;-57
2021/05/30 13:24:55;;;;;;;4.80;1.00;;;;;;;;;;4919757;29;20123;-56
2021/05/30 13:27:22;;;;;;;4.43;1.20;;;;;;;;;;4918858;29;20035;-56
2021/05/30 13:30:03;;;;;;;4.63;1.05;;;;;;;;;;4920822;29;20051;-56
2021/05/30 13:32:29;;;;;;;4.13;0.98;;;;;;;;;;4919033;29;20039;-55
2021/05/30 13:34:55;;;;;;;5.00;1.08;;;;;;;;;;4917678;29;20067;-56
2021/05/30 13:37:21;;;;;;;3.35;1.00;;;;;;;;;;4919488;29;20176;-55
2021/05/30 13:39:47;;;;;;;3.63;0.90;;;;;;;;;;4917389;29;20040;-56
2021/05/30 13:42:12;;;;;;;5.07;0.88;;;;;;;;;;4917971;29;20475;-56
2021/05/30 13:44:38;;;;;;;3.05;1.00;;;;;;;;;;4916539;29;20518;-56
2021/05/30 13:47:04;;;;;;;3.47;1.20;;;;;;;;;;4917222;29;20047;-56
2021/05/30 13:49:30;;;;;;;6.72;2.38;;;;;;;;;;4917935;29;20040;-56
2021/05/30 13:51:56;;;;;;;3.45;0.98;;;;;;;;;;4917599;29;20051;-56
2021/05/30 13:54:21;;;;;;;2.58;0.98;;;;;;;;;;4918475;29;20040;-55
2021/05/30 13:56:47;;;;;;;4.40;0.88;;;;;;;;;;4916760;29;20654;-53
2021/05/30 13:59:13;;;;;;;7.10;1.00;;;;;;;;;;4919689;29;20054;-54
2021/05/30 14:01:39;;;;;;;5.75;0.98;;;;;;;;;;4915762;29;20937;-56
2021/05/30 14:04:05;;;;;;;6.18;0.90;;;;;;;;;;4919265;29;20082;-56
2021/05/30 14:06:30;;;;;;;4.05;1.00;;;;;;;;;;4916576;29;20039;-57
2021/05/30 14:08:57;;;;;;;2.70;0.90;;;;;;;;;;4916364;29;20118;-56
2021/05/30 14:11:25;;;;;;;4.45;0.98;;;;;;;;;;4917292;29;20485;-54
2021/05/30 14:13:51;;;;;;;5.10;1.10;;;;;;;;;;4919463;29;20036;-56
2021/05/30 14:16:17;;;;;;;5.35;1.08;;;;;;;;;;4916730;29;20121;-56
2021/05/30 14:18:42;;;;;;;2.78;0.98;;;;;;;;;;4918634;29;20040;-56
2021/05/30 14:21:08;;;;;;;5.30;1.02;;;;;;;;;;4918224;29;20450;-57
2021/05/30 14:23:34;;;;;;;4.05;1.00;;;;;;;;;;4916202;29;20044;-56
2021/05/30 14:26:00;;;;;;;7.00;1.10;;;;;;;;;;4918681;29;20075;-56
2021/05/30 14:28:26;;;;;;;3.17;1.10;;;;;;;;;;4918586;29;20071;-57
2021/05/30 14:30:52;;;;;;;3.88;1.05;;;;;;;;;;4919918;29;20052;-56
2021/05/30 14:33:18;;;;;;;5.25;1.00;;;;;;;;;;4918094;29;20083;-55
2021/05/30 14:35:43;;;;;;;6.35;1.00;;;;;;;;;;4916274;29;20036;-56
2021/05/30 14:38:09;;;;;;;7.13;1.20;;;;;;;;;;4919803;29;20051;-57
2021/05/30 14:40:35;;;;;;;3.72;0.90;;;;;;;;;;4918743;29;20051;-56
2021/05/30 14:43:01;;;;;;;6.15;1.00;;;;;;;;;;4919220;29;20040;-54
2021/05/30 14:45:27;;;;;;;6.90;0.98;;;;;;;;;;4917344;29;20055;-57